Time;durP1;ratioP1;P1;durP2;ratioP2;P2;SDS_P1;SDS_P2;PMS_P1;PMS_P2;Temp;Humidity;BMP_temperature;BMP_pressure;BME280_temperature;BME280_humidity;BME280_pressure;Samples;Min_cycle;Max_cycle;Signal;HPM_P1;HPM_P2
2023/05/03 00:01:31;;;;;;;7.30;3.60;;;;;;;10.69;62.00;101223.52;106126;276;38596;-74
2023/05/03 00:04:06;;;;;;;6.00;3.40;;;;;;;10.65;61.95;101224.48;105679;276;38668;-74
2023/05/03 00:06:44;;;;;;;6.60;3.00;;;;;;;10.60;62.32;101223.73;105675;276;38474;-74
2023/05/03 00:09:20;;;;;;;7.70;3.40;;;;;;;10.56;62.17;101224.02;105690;276;38877;-74
2023/05/03 00:11:56;;;;;;;9.00;3.60;;;;;;;10.55;62.29;101224.19;106119;276;38537;-75
2023/05/03 00:14:33;;;;;;;6.60;4.10;;;;;;;10.51;62.27;101224.29;106120;277;39419;-74
2023/05/03 00:17:08;;;;;;;6.50;3.50;;;;;;;10.48;62.40;101229.27;105646;276;38255;-73
2023/05/03 00:19:43;;;;;;;5.70;3.20;;;;;;;10.43;62.40;101224.50;105648;277;39636;-74
2023/05/03 00:22:18;;;;;;;8.40;3.50;;;;;;;10.41;62.52;101225.94;105665;276;38681;-74
2023/05/03 00:24:56;;;;;;;6.10;2.90;;;;;;;10.41;62.57;101226.46;105674;277;39689;-73
2023/05/03 00:27:32;;;;;;;5.30;3.40;;;;;;;10.43;62.63;101220.81;105692;276;39792;-73
2023/05/03 00:30:13;;;;;;;6.40;3.10;;;;;;;10.47;62.61;101210.26;105006;276;904714;-73
2023/05/03 00:32:52;;;;;;;6.50;3.50;;;;;;;10.50;62.56;101212.29;105637;276;38811;-74
2023/05/03 00:35:28;;;;;;;9.50;3.40;;;;;;;10.51;62.41;101212.10;106122;276;38525;-74
2023/05/03 00:38:05;;;;;;;5.90;4.10;;;;;;;10.49;62.22;101204.46;106143;277;39538;-74
2023/05/03 00:40:40;;;;;;;6.00;3.40;;;;;;;10.48;62.15;101209.89;105681;276;39414;-74
2023/05/03 00:43:20;;;;;;;4.90;3.10;;;;;;;10.44;62.08;101215.40;106095;276;38881;-74
2023/05/03 00:45:56;;;;;;;4.90;3.20;;;;;;;10.37;62.11;101217.32;105692;276;39495;-74
2023/05/03 00:48:33;;;;;;;8.30;3.20;;;;;;;10.30;62.17;101217.45;105655;276;39953;-74
2023/05/03 00:51:08;;;;;;;5.00;3.10;;;;;;;10.23;62.31;101223.54;105660;276;38427;-73
2023/05/03 00:53:43;;;;;;;6.80;3.20;;;;;;;10.20;62.51;101230.21;106149;276;38403;-73
2023/05/03 00:56:20;;;;;;;5.80;3.50;;;;;;;10.18;62.54;101235.50;105682;276;38413;-74
2023/05/03 00:58:59;;;;;;;7.50;3.60;;;;;;;10.14;62.55;101238.21;105668;276;40002;-74
2023/05/03 01:01:36;;;;;;;6.60;3.10;;;;;;;10.08;62.57;101241.98;105682;276;38384;-73
2023/05/03 01:04:11;;;;;;;5.90;3.10;;;;;;;10.02;62.65;101248.23;105639;276;38646;-73
2023/05/03 01:06:51;;;;;;;7.80;3.30;;;;;;;9.94;62.70;101254.33;105672;276;38316;-74
2023/05/03 01:09:38;;;;;;;6.40;3.60;;;;;;;9.90;62.73;101258.77;105661;276;39379;-74
2023/05/03 01:12:30;;;;;;;12.60;7.30;;;;;;;9.82;62.55;101255.80;105636;276;38266;-73
2023/05/03 01:15:15;;;;;;;19.30;8.90;;;;;;;9.72;62.49;101256.70;105654;276;38366;-74
2023/05/03 01:17:54;;;;;;;20.10;9.80;;;;;;;9.64;62.49;101260.69;106135;276;39114;-74
2023/05/03 01:20:31;;;;;;;22.30;10.40;;;;;;;9.56;62.39;101258.59;105656;276;39154;-74
2023/05/03 01:23:18;;;;;;;16.70;7.80;;;;;;;9.49;62.33;101261.17;105363;276;38476;-74
2023/05/03 01:25:56;;;;;;;12.80;5.90;;;;;;;9.42;62.19;101260.59;106150;276;38331;-74
2023/05/03 01:28:33;;;;;;;17.20;8.30;;;;;;;9.37;62.00;101260.34;105428;276;39003;-75
2023/05/03 01:31:09;;;;;;;19.60;8.90;;;;;;;9.31;61.81;101258.55;105658;276;38440;-73
2023/05/03 01:33:53;;;;;;;17.20;8.30;;;;;;;9.20;61.73;101263.10;105385;278;38288;-73
2023/05/03 01:36:44;;;;;;;27.20;12.00;;;;;;;9.07;61.85;101263.85;104935;278;951711;-73
2023/05/03 01:39:27;;;;;;;25.90;11.80;;;;;;;8.93;62.01;101268.98;105639;276;38459;-73
2023/05/03 01:42:02;;;;;;;19.40;8.50;;;;;;;8.83;62.32;101276.61;105678;276;39667;-73
2023/05/03 01:44:37;;;;;;;10.40;5.30;;;;;;;8.72;62.65;101281.66;105645;277;39924;-73
2023/05/03 01:47:15;;;;;;;6.50;4.00;;;;;;;8.60;62.74;101283.77;105653;276;38975;-72
2023/05/03 01:49:49;;;;;;;5.70;3.10;;;;;;;8.50;63.08;101285.48;105590;277;38606;-74
2023/05/03 01:52:25;;;;;;;6.60;2.80;;;;;;;8.43;63.40;101284.17;106136;276;39639;-74
2023/05/03 01:55:00;;;;;;;5.30;2.50;;;;;;;8.34;63.65;101283.77;105570;276;174491;-73
2023/05/03 01:57:35;;;;;;;5.70;2.90;;;;;;;8.27;64.04;101284.20;105667;276;38845;-73
2023/05/03 02:00:19;;;;;;;6.10;3.50;;;;;;;8.21;64.23;101283.08;105650;276;38480;-74
2023/05/03 02:02:57;;;;;;;4.60;2.60;;;;;;;8.14;64.71;101280.56;106135;276;38728;-74
2023/05/03 02:05:32;;;;;;;3.70;2.00;;;;;;;8.11;65.20;101279.38;105658;276;39004;-73
2023/05/03 02:08:09;;;;;;;4.60;2.10;;;;;;;8.10;65.60;101276.61;106158;276;39706;-73
2023/05/03 02:10:49;;;;;;;3.80;2.20;;;;;;;8.11;65.76;101272.77;105694;276;38234;-73
2023/05/03 02:13:30;;;;;;;3.10;2.30;;;;;;;8.12;66.04;101279.73;105631;276;39444;-73
2023/05/03 02:16:08;;;;;;;5.70;2.70;;;;;;;8.15;66.39;101288.71;105680;276;38568;-74
2023/05/03 02:18:44;;;;;;;4.60;3.10;;;;;;;8.18;66.46;101288.33;106139;276;38857;-74
2023/05/03 02:21:18;;;;;;;5.00;2.70;;;;;;;8.19;66.78;101283.27;105670;276;38887;-73
2023/05/03 02:23:56;;;;;;;5.90;2.60;;;;;;;8.23;67.11;101288.08;106098;274;38905;-72
2023/05/03 02:26:31;;;;;;;5.60;2.60;;;;;;;8.27;67.28;101299.33;105671;276;38742;-73
2023/05/03 02:29:07;;;;;;;4.60;2.60;;;;;;;8.32;67.23;101304.99;105657;276;38732;-73
2023/05/03 02:31:44;;;;;;;5.60;3.10;;;;;;;8.37;67.24;101300.27;106135;276;39357;-74
2023/05/03 02:34:30;;;;;;;4.10;2.70;;;;;;;8.42;67.26;101293.77;105679;276;39359;-74
2023/05/03 02:37:05;;;;;;;3.60;2.40;;;;;;;8.45;67.33;101290.94;105658;276;39805;-74
2023/05/03 02:39:40;;;;;;;5.50;2.60;;;;;;;8.44;67.03;101294.61;105675;276;38256;-73
2023/05/03 02:42:15;;;;;;;7.50;2.80;;;;;;;8.42;66.70;101305.41;105654;276;38678;-72
2023/05/03 02:44:50;;;;;;;3.90;2.40;;;;;;;8.44;66.68;101300.17;105662;276;38343;-74
2023/05/03 02:47:25;;;;;;;3.80;2.60;;;;;;;8.47;66.88;101294.55;105690;276;38818;-74
2023/05/03 02:50:01;;;;;;;5.80;2.90;;;;;;;8.51;66.87;101292.93;105682;276;38635;-73
2023/05/03 02:52:40;;;;;;;4.70;2.60;;;;;;;8.53;66.47;101293.95;105643;276;38733;-72
2023/05/03 02:55:15;;;;;;;7.30;2.60;;;;;;;8.54;66.29;101291.50;105386;278;38246;-74
2023/05/03 02:57:51;;;;;;;3.40;2.50;;;;;;;8.54;66.13;101289.95;105329;278;38838;-74
2023/05/03 03:00:26;;;;;;;5.70;2.70;;;;;;;8.50;66.05;101291.73;105654;276;38277;-73
2023/05/03 03:03:01;;;;;;;4.90;2.20;;;;;;;8.48;66.14;101298.72;105616;276;38957;-73
2023/05/03 03:05:37;;;;;;;5.10;2.90;;;;;;;8.47;66.08;101300.13;105671;276;38658;-74
2023/05/03 03:08:12;;;;;;;4.70;2.60;;;;;;;8.50;66.06;101300.96;105691;276;38226;-74
2023/05/03 03:10:51;;;;;;;5.20;3.10;;;;;;;8.51;66.07;101302.50;106115;276;38914;-73
2023/05/03 03:13:25;;;;;;;5.60;3.20;;;;;;;8.51;65.97;101299.36;105668;276;38374;-74
2023/05/03 03:16:00;;;;;;;5.50;3.00;;;;;;;8.50;66.05;101299.73;105641;276;38256;-72
2023/05/03 03:18:35;;;;;;;6.40;2.80;;;;;;;8.47;66.04;101300.65;105653;276;38748;-72
2023/05/03 03:21:15;;;;;;;7.70;3.20;;;;;;;8.46;66.13;101312.66;105710;276;38626;-73
2023/05/03 03:23:52;;;;;;;5.30;3.30;;;;;;;8.43;66.33;101316.70;105682;276;39137;-73
2023/05/03 03:26:28;;;;;;;7.80;3.80;;;;;;;8.42;66.70;101319.84;105668;276;39448;-74
2023/05/03 03:29:04;;;;;;;13.00;6.40;;;;;;;8.42;66.71;101325.06;106093;276;40103;-74
2023/05/03 03:31:40;;;;;;;12.80;6.30;;;;;;;8.44;66.77;101329.38;105669;276;38581;-74
2023/05/03 03:34:15;;;;;;;14.60;6.50;;;;;;;8.47;66.84;101325.86;106097;277;38432;-74
2023/05/03 03:36:50;;;;;;;10.90;6.30;;;;;;;8.50;66.85;101329.30;105667;276;39914;-72
2023/05/03 03:39:25;;;;;;;15.30;7.40;;;;;;;8.51;66.75;101331.38;105667;276;38265;-72
2023/05/03 03:42:03;;;;;;;11.40;6.20;;;;;;;8.53;66.62;101338.83;105670;276;38628;-72
2023/05/03 03:44:38;;;;;;;20.60;9.00;;;;;;;8.54;66.43;101342.29;105642;276;38659;-73
2023/05/03 03:47:13;;;;;;;15.30;6.60;;;;;;;8.57;66.58;101340.34;105692;277;39615;-74
2023/05/03 03:49:47;;;;;;;8.40;3.70;;;;;;;8.60;66.43;101339.59;105681;276;38350;-73
2023/05/03 03:52:29;;;;;;;8.30;4.40;;;;;;;8.62;66.33;101344.27;105671;277;38931;-72
2023/05/03 03:55:07;;;;;;;22.30;8.90;;;;;;;8.66;66.39;101347.33;106121;276;39936;-73
2023/05/03 03:57:45;;;;;;;15.40;6.30;;;;;;;8.70;66.31;101347.60;105652;276;38448;-73
2023/05/03 04:00:23;;;;;;;13.10;5.60;;;;;;;8.75;66.23;101353.63;105680;276;38246;-73
2023/05/03 04:03:01;;;;;;;7.60;3.90;;;;;;;8.84;66.08;101355.25;105648;312;38263;-73
2023/05/03 04:05:36;;;;;;;16.90;7.40;;;;;;;8.92;65.75;101360.52;106112;276;38284;-73
2023/05/03 04:08:13;;;;;;;13.30;5.50;;;;;;;8.98;65.51;101366.34;105638;276;39308;-73
2023/05/03 04:10:48;;;;;;;11.30;5.00;;;;;;;8.99;65.11;101367.02;105663;277;38978;-74
2023/05/03 04:13:27;;;;;;;10.10;4.30;;;;;;;9.03;64.80;101372.17;105650;276;38342;-74
2023/05/03 04:16:04;;;;;;;10.10;4.60;;;;;;;9.12;64.87;101373.25;106142;276;39725;-74
2023/05/03 04:18:40;;;;;;;7.10;3.70;;;;;;;9.19;64.45;101376.09;105677;276;39406;-74
2023/05/03 04:21:15;;;;;;;7.10;3.90;;;;;;;9.25;64.17;101373.04;106119;276;39338;-74
2023/05/03 04:23:53;;;;;;;5.60;3.40;;;;;;;9.35;63.83;101372.16;105677;276;39379;-74
2023/05/03 04:26:31;;;;;;;5.50;2.60;;;;;;;9.46;63.59;101370.77;106105;276;39671;-74
2023/05/03 04:29:06;;;;;;;4.90;3.20;;;;;;;9.60;63.19;101373.66;105644;276;39854;-74
2023/05/03 04:31:41;;;;;;;5.90;3.20;;;;;;;9.72;62.71;101374.48;105666;276;38739;-74
2023/05/03 04:34:18;;;;;;;7.80;3.80;;;;;;;9.89;62.95;101377.99;105668;276;38252;-74
2023/05/03 04:36:59;;;;;;;5.20;2.80;;;;;;;10.16;62.47;101381.48;105659;276;39634;-73
2023/05/03 04:39:37;;;;;;;5.30;2.60;;;;;;;10.39;61.70;101382.77;106129;276;38225;-73
2023/05/03 04:42:14;;;;;;;7.80;4.20;;;;;;;10.78;61.84;101388.38;105684;276;38468;-73
2023/05/03 04:44:50;;;;;;;7.10;3.30;;;;;;;11.67;60.54;101388.13;105686;276;38601;-74
2023/05/03 04:47:30;;;;;;;4.00;2.40;;;;;;;12.30;58.18;101389.21;105643;276;39783;-74
2023/05/03 04:50:11;;;;;;;6.90;3.40;;;;;;;12.52;56.63;101392.08;105661;276;39284;-74
2023/05/03 04:52:46;;;;;;;6.60;3.30;;;;;;;12.53;55.40;101392.77;106103;276;39118;-74
2023/05/03 04:55:22;;;;;;;4.20;2.40;;;;;;;12.39;53.72;101390.20;105273;278;171781;-74
2023/05/03 04:57:57;;;;;;;3.60;2.30;;;;;;;12.15;53.24;101390.52;106098;277;39794;-74
2023/05/03 05:00:34;;;;;;;2.90;2.00;;;;;;;11.97;53.35;101395.75;106097;272;39151;-73
2023/05/03 05:03:09;;;;;;;5.50;2.60;;;;;;;12.25;54.17;101397.41;106116;276;38390;-73
2023/05/03 05:05:44;;;;;;;4.70;2.80;;;;;;;13.04;54.46;101403.98;105666;276;38498;-73
2023/05/03 05:08:19;;;;;;;3.40;2.40;;;;;;;14.27;52.87;101403.30;105660;276;38561;-73
2023/05/03 05:10:54;;;;;;;4.00;2.20;;;;;;;15.37;48.56;101394.80;105637;276;38528;-74
2023/05/03 05:13:29;;;;;;;4.10;2.40;;;;;;;16.16;46.01;101395.80;106128;276;38363;-74
2023/05/03 05:16:07;;;;;;;3.00;2.00;;;;;;;16.67;44.48;101401.58;105654;276;38408;-75
2023/05/03 05:18:42;;;;;;;2.70;2.10;;;;;;;16.65;42.88;101404.30;106099;276;39699;-75
2023/05/03 05:21:17;;;;;;;5.00;2.30;;;;;;;16.42;42.62;101405.18;105652;277;39645;-73
2023/05/03 05:23:54;;;;;;;2.80;2.20;;;;;;;16.19;42.51;101409.04;105658;276;38265;-71
2023/05/03 05:26:30;;;;;;;4.30;2.10;;;;;;;16.25;42.42;101405.24;105646;276;38589;-75
2023/05/03 05:29:05;;;;;;;3.10;2.10;;;;;;;16.53;42.74;101408.36;105567;276;173893;-75
2023/05/03 05:31:40;;;;;;;3.70;1.80;;;;;;;17.23;41.53;101411.76;106096;276;39732;-75
2023/05/03 05:34:18;;;;;;;2.60;2.00;;;;;;;18.00;39.70;101407.33;105625;277;38522;-75
2023/05/03 05:36:56;;;;;;;2.40;1.60;;;;;;;18.78;38.08;101408.98;105660;276;38256;-74
2023/05/03 05:39:34;;;;;;;3.30;1.80;;;;;;;19.51;36.64;101406.40;105345;278;38650;-74
2023/05/03 05:42:09;;;;;;;2.10;1.30;;;;;;;20.31;34.92;101405.77;105670;276;38243;-74
2023/05/03 05:44:44;;;;;;;3.10;1.80;;;;;;;20.85;33.78;101409.14;105678;277;38525;-73
2023/05/03 05:47:22;;;;;;;2.00;1.50;;;;;;;21.39;32.93;101408.80;105667;277;40241;-74
2023/05/03 05:49:59;;;;;;;2.40;1.20;;;;;;;22.01;32.35;101410.61;105658;276;38512;-74
2023/05/03 05:52:35;;;;;;;2.40;1.40;;;;;;;22.56;30.56;101411.05;105674;277;38259;-74
2023/05/03 05:55:13;;;;;;;3.50;1.40;;;;;;;23.06;29.28;101410.63;106148;277;39915;-74
2023/05/03 05:57:49;;;;;;;2.20;1.20;;;;;;;23.48;28.70;101421.69;105638;276;39953;-74
2023/05/03 06:00:25;;;;;;;2.40;1.50;;;;;;;23.98;27.71;101417.88;105670;276;39520;-74
2023/05/03 06:03:00;;;;;;;2.40;1.30;;;;;;;24.35;26.79;101421.02;105619;273;40131;-74
2023/05/03 06:05:38;;;;;;;2.00;1.20;;;;;;;24.59;26.22;101425.04;105667;277;39837;-73
2023/05/03 06:08:14;;;;;;;1.50;1.00;;;;;;;24.89;25.12;101429.86;105679;276;38425;-73
2023/05/03 06:10:51;;;;;;;1.60;1.10;;;;;;;25.22;24.37;101436.84;106137;277;38346;-74
2023/05/03 06:13:32;;;;;;;1.70;1.00;;;;;;;25.53;23.16;101436.45;104867;278;888077;-74
2023/05/03 06:16:07;;;;;;;1.40;0.90;;;;;;;25.76;22.02;101437.71;105386;276;40024;-74
2023/05/03 06:18:46;;;;;;;1.00;0.90;;;;;;;26.00;21.70;101436.76;105343;277;40135;-76
2023/05/03 06:21:22;;;;;;;1.30;0.90;;;;;;;26.35;20.63;101436.73;106125;277;38457;-75
2023/05/03 06:23:59;;;;;;;1.90;1.00;;;;;;;26.73;21.05;101439.81;105616;276;38786;-76
2023/05/03 06:26:35;;;;;;;2.10;1.10;;;;;;;26.87;20.14;101440.69;105665;276;38221;-77
2023/05/03 06:29:17;;;;;;;1.70;0.80;;;;;;;26.90;19.42;101443.88;105659;276;39269;-77
2023/05/03 06:31:51;;;;;;;1.60;0.90;;;;;;;27.07;19.35;101439.83;106089;276;39981;-76
2023/05/03 06:34:29;;;;;;;1.40;0.90;;;;;;;27.14;18.60;101446.70;105262;277;173425;-76
2023/05/03 06:37:03;;;;;;;0.80;0.80;;;;;;;27.33;18.74;101447.11;106105;276;38267;-73
2023/05/03 06:39:40;;;;;;;1.30;0.80;;;;;;;27.71;18.07;101444.12;106100;277;38616;-75
2023/05/03 06:42:18;;;;;;;1.20;1.00;;;;;;;27.47;18.31;101443.99;105533;276;173357;-76
2023/05/03 06:44:56;;;;;;;2.10;0.90;;;;;;;27.23;17.90;101438.67;105663;276;38876;-74
2023/05/03 06:47:32;;;;;;;2.50;1.40;;;;;;;27.35;18.05;101443.32;105375;278;38999;-76
2023/05/03 06:50:09;;;;;;;2.30;0.90;;;;;;;27.36;18.36;101450.05;105673;276;39240;-77
2023/05/03 06:52:43;;;;;;;1.80;0.90;;;;;;;27.54;18.40;101449.66;105656;276;39496;-77
2023/05/03 06:55:19;;;;;;;2.40;1.00;;;;;;;27.74;18.46;101448.35;106109;277;39415;-77
2023/05/03 06:57:59;;;;;;;1.40;1.10;;;;;;;27.92;18.41;101448.69;105648;276;40082;-77
2023/05/03 07:00:37;;;;;;;2.90;1.20;;;;;;;27.91;18.16;101451.45;105686;276;38502;-76
2023/05/03 07:03:12;;;;;;;1.80;1.30;;;;;;;27.88;18.34;101452.13;105668;276;38266;-76
2023/05/03 07:05:48;;;;;;;2.00;1.30;;;;;;;27.85;18.49;101455.21;105624;276;38319;-75
2023/05/03 07:08:22;;;;;;;2.00;1.00;;;;;;;27.77;18.79;101458.07;105647;276;38785;-76
2023/05/03 07:10:58;;;;;;;2.30;1.10;;;;;;;27.16;18.71;101457.56;105670;276;38947;-75
2023/05/03 07:13:32;;;;;;;2.10;1.00;;;;;;;25.89;19.01;101462.36;105636;277;38440;-76
2023/05/03 07:16:09;;;;;;;1.70;1.10;;;;;;;25.38;19.97;101463.27;105653;276;38884;-76
2023/05/03 07:18:45;;;;;;;1.60;0.90;;;;;;;25.55;19.97;101461.80;105635;276;38602;-76
2023/05/03 07:21:21;;;;;;;1.10;0.90;;;;;;;25.94;19.27;101459.04;105653;276;38511;-74
2023/05/03 07:23:56;;;;;;;2.20;1.00;;;;;;;26.37;19.33;101452.80;106103;277;38250;-73
2023/05/03 07:26:31;;;;;;;2.10;0.80;;;;;;;26.76;18.73;101453.88;106134;276;39033;-76
2023/05/03 07:29:08;;;;;;;1.80;1.10;;;;;;;27.02;19.12;101453.86;105653;276;38674;-76
2023/05/03 07:31:43;;;;;;;1.40;0.90;;;;;;;27.52;18.51;101457.89;106089;276;38917;-76
2023/05/03 07:34:18;;;;;;;1.90;1.10;;;;;;;27.12;18.35;101458.18;106071;276;38630;-75
2023/05/03 07:36:52;;;;;;;1.90;1.20;;;;;;;26.96;18.67;101455.13;106117;276;38368;-73
2023/05/03 07:39:28;;;;;;;1.80;1.30;;;;;;;26.83;18.84;101456.79;105660;276;39934;-74
2023/05/03 07:42:04;;;;;;;1.90;1.30;;;;;;;26.48;19.74;101461.15;105364;276;39142;-76
2023/05/03 07:44:40;;;;;;;2.50;1.00;;;;;;;25.64;20.14;101467.82;105383;277;38229;-74
2023/05/03 07:47:18;;;;;;;4.40;1.40;;;;;;;25.14;21.15;101467.70;105954;277;39425;-74
2023/05/03 07:49:53;;;;;;;4.40;1.30;;;;;;;25.06;21.33;101469.40;105975;277;39743;-75
2023/05/03 07:52:30;;;;;;;2.10;1.20;;;;;;;24.67;21.62;101464.70;105392;266;38748;-75
2023/05/03 07:55:06;;;;;;;2.30;1.20;;;;;;;24.11;22.23;101466.41;105979;277;39674;-73
2023/05/03 07:57:44;;;;;;;2.60;1.20;;;;;;;24.39;21.89;101463.68;105635;277;38327;-73
2023/05/03 08:00:19;;;;;;;2.10;1.10;;;;;;;24.88;21.32;101461.59;105652;277;38877;-75
2023/05/03 08:02:54;;;;;;;2.70;1.40;;;;;;;25.47;21.54;101463.89;105642;277;38306;-76
2023/05/03 08:05:30;;;;;;;3.00;1.30;;;;;;;26.25;20.34;101461.25;106011;277;38486;-76
2023/05/03 08:08:06;;;;;;;2.70;1.20;;;;;;;26.45;19.86;101459.15;105654;277;39406;-76
2023/05/03 08:10:40;;;;;;;2.50;1.40;;;;;;;25.59;19.81;101465.58;105645;277;38782;-75
2023/05/03 08:13:14;;;;;;;2.90;1.60;;;;;;;24.52;20.80;101465.83;105017;277;887589;-75
2023/05/03 08:15:49;;;;;;;3.30;1.40;;;;;;;23.42;21.39;101471.47;105639;277;38519;-74
2023/05/03 08:18:26;;;;;;;2.00;1.50;;;;;;;22.66;22.74;101467.03;105643;277;38298;-74
2023/05/03 08:21:07;;;;;;;3.10;1.70;;;;;;;22.95;23.74;101467.66;105632;277;39453;-75
2023/05/03 08:23:41;;;;;;;2.90;1.80;;;;;;;24.03;23.64;101462.20;106028;277;39687;-77
2023/05/03 08:26:16;;;;;;;4.20;2.20;;;;;;;25.34;23.68;101459.99;105631;277;38960;-75
2023/05/03 08:28:50;;;;;;;3.70;2.10;;;;;;;26.39;21.56;101455.11;105622;277;38239;-75
2023/05/03 08:31:25;;;;;;;3.30;1.80;;;;;;;26.10;21.08;101462.14;105630;277;38315;-75
2023/05/03 08:34:02;;;;;;;3.20;1.80;;;;;;;25.07;21.27;101464.70;106036;277;38452;-74
2023/05/03 08:36:39;;;;;;;2.10;1.60;;;;;;;24.23;21.92;101465.90;105391;278;38275;-75
2023/05/03 08:39:18;;;;;;;3.50;1.80;;;;;;;23.99;23.43;101470.56;105643;277;38473;-75
2023/05/03 08:41:57;;;;;;;3.20;1.80;;;;;;;24.79;23.23;101467.67;105509;277;173440;-74
2023/05/03 08:44:34;;;;;;;;;;;;;;;25.77;22.86;101467.14;106012;276;170946;-74
2023/05/03 08:47:09;;;;;;;3.30;2.10;;;;;;;25.78;21.49;101477.38;105659;276;38318;-74
2023/05/03 08:49:44;;;;;;;2.70;1.90;;;;;;;24.89;21.57;101478.82;105659;276;38689;-73
2023/05/03 08:52:22;;;;;;;2.40;1.60;;;;;;;24.55;22.41;101481.39;106119;276;38530;-73
2023/05/03 08:54:58;;;;;;;3.30;2.00;;;;;;;25.02;22.19;101478.29;105658;275;38620;-75
2023/05/03 08:57:38;;;;;;;3.70;1.80;;;;;;;25.56;21.55;101481.18;105616;277;38503;-75
2023/05/03 09:00:18;;;;;;;2.00;1.80;;;;;;;26.27;22.01;101475.33;105627;276;38922;-74
2023/05/03 09:02:55;;;;;;;3.50;1.80;;;;;;;27.13;21.41;101471.10;105670;276;38234;-74
2023/05/03 09:05:42;;;;;;;2.10;1.30;;;;;;;26.94;19.38;101475.48;105664;276;38489;-75
2023/05/03 09:08:29;;;;;;;3.00;1.60;;;;;;;25.63;19.87;101484.36;105644;276;39419;-75
2023/05/03 09:11:09;;;;;;;2.70;1.40;;;;;;;24.50;20.90;101489.20;105668;277;38735;-73
2023/05/03 09:13:44;;;;;;;2.40;1.70;;;;;;;24.30;21.48;101488.66;105660;276;38903;-73
2023/05/03 09:16:28;;;;;;;1.70;1.50;;;;;;;24.51;21.02;101485.99;105691;276;38578;-73
2023/05/03 09:19:11;;;;;;;1.50;1.20;;;;;;;24.76;21.20;101485.75;105630;276;38614;-75
2023/05/03 09:21:49;;;;;;;2.20;1.00;;;;;;;25.23;21.21;101482.18;105657;276;38242;-76
2023/05/03 09:24:26;;;;;;;2.10;1.10;;;;;;;25.66;20.44;101481.63;105648;276;39018;-76
2023/05/03 09:27:05;;;;;;;2.90;1.30;;;;;;;25.57;19.65;101477.02;106140;276;39719;-73
2023/05/03 09:29:42;;;;;;;3.10;1.00;;;;;;;25.36;20.18;101479.08;105678;276;39390;-74
2023/05/03 09:32:20;;;;;;;1.20;0.90;;;;;;;25.35;20.60;101477.79;105691;276;38233;-74
2023/05/03 09:34:58;;;;;;;2.10;1.10;;;;;;;25.27;21.18;101479.16;105690;276;38491;-74
2023/05/03 09:37:39;;;;;;;1.30;1.10;;;;;;;25.02;19.79;101485.67;105384;276;38902;-74
2023/05/03 09:40:31;;;;;;;1.50;0.90;;;;;;;24.32;20.01;101487.24;106133;277;39781;-72
2023/05/03 09:43:15;;;;;;;2.90;1.20;;;;;;;23.78;20.60;101482.18;105643;276;39464;-74
2023/05/03 09:45:53;;;;;;;1.80;1.10;;;;;;;23.32;21.67;101475.77;105633;276;38330;-74
2023/05/03 09:48:38;;;;;;;1.60;1.10;;;;;;;23.38;22.79;101481.95;105649;276;38386;-74
2023/05/03 09:51:13;;;;;;;2.00;1.40;;;;;;;23.42;22.24;101483.96;105653;276;38599;-74
2023/05/03 09:53:54;;;;;;;3.10;1.30;;;;;;;22.81;21.81;101483.08;105656;277;39685;-74
2023/05/03 09:56:34;;;;;;;2.40;1.30;;;;;;;21.94;22.29;101493.37;105703;276;38303;-74
2023/05/03 09:59:20;;;;;;;1.90;1.20;;;;;;;21.45;23.16;101488.67;105679;276;38279;-73
2023/05/03 10:01:58;;;;;;;2.30;1.30;;;;;;;21.04;23.84;101489.17;106121;276;39450;-73
2023/05/03 10:04:46;;;;;;;2.40;1.60;;;;;;;20.75;24.60;101489.07;105663;276;38426;-74
2023/05/03 10:07:21;;;;;;;2.50;1.40;;;;;;;20.63;25.22;101492.29;106124;276;39974;-75
2023/05/03 10:09:56;;;;;;;2.70;1.50;;;;;;;20.86;25.90;101494.59;105982;276;173881;-74
2023/05/03 10:12:33;;;;;;;3.00;1.70;;;;;;;21.15;26.27;101497.17;105642;276;38637;-73
2023/05/03 10:15:09;;;;;;;2.30;1.60;;;;;;;21.42;26.14;101499.87;105686;268;38251;-74
2023/05/03 10:17:49;;;;;;;1.60;1.20;;;;;;;21.71;25.92;101492.63;105651;276;38498;-73
2023/05/03 10:20:32;;;;;;;2.40;1.50;;;;;;;22.01;25.44;101488.46;105680;276;38665;-74
2023/05/03 10:23:18;;;;;;;2.70;1.50;;;;;;;22.14;24.62;101496.28;105659;277;39658;-71
2023/05/03 10:26:21;;;;;;;3.30;1.40;;;;;;;21.69;24.38;101499.55;106004;277;171331;-73
2023/05/03 10:29:06;;;;;;;3.60;1.60;;;;;;;20.85;24.55;101498.50;105654;276;37999;-75
2023/05/03 10:31:51;;;;;;;2.50;1.40;;;;;;;20.09;25.06;101500.86;105668;276;38223;-74
2023/05/03 10:34:31;;;;;;;1.70;1.20;;;;;;;19.51;25.74;101499.09;106126;276;39906;-74
2023/05/03 10:37:16;;;;;;;3.80;1.80;;;;;;;19.43;25.89;101491.41;105373;278;40051;-74
2023/05/03 10:40:10;;;;;;;4.00;1.70;;;;;;;19.63;26.93;101489.24;106144;276;38221;-74
2023/05/03 10:42:49;;;;;;;2.40;1.60;;;;;;;20.07;26.75;101480.29;105669;276;38424;-74
2023/05/03 10:45:32;;;;;;;2.80;1.40;;;;;;;20.45;27.32;101481.31;105922;278;38748;-75
2023/05/03 10:48:27;;;;;;;2.70;1.30;;;;;;;20.78;26.38;101484.08;105454;278;38313;-75
2023/05/03 10:51:35;;;;;;;2.90;1.30;;;;;;;21.00;26.07;101483.78;105439;278;38270;-74
2023/05/03 10:54:12;;;;;;;2.30;1.20;;;;;;;21.22;25.81;101482.52;105456;278;39401;-74
2023/05/03 10:56:59;;;;;;;3.30;1.50;;;;;;;21.49;26.02;101478.59;105438;278;39950;-73
2023/05/03 10:59:49;;;;;;;1.80;1.40;;;;;;;21.84;25.85;101482.33;105435;278;39423;-74
2023/05/03 11:02:23;;;;;;;2.60;1.50;;;;;;;22.16;24.82;101479.84;105466;278;38786;-73
2023/05/03 11:05:02;;;;;;;2.40;1.60;;;;;;;22.04;23.84;101480.92;105931;278;38410;-72
2023/05/03 11:07:37;;;;;;;2.10;1.60;;;;;;;21.51;23.49;101493.41;105446;278;39603;-74
2023/05/03 11:10:22;;;;;;;3.80;1.50;;;;;;;20.87;23.56;101497.34;105921;278;39413;-74
2023/05/03 11:12:59;;;;;;;2.00;1.30;;;;;;;20.32;23.91;101499.51;105917;278;38864;-73
2023/05/03 11:15:35;;;;;;;2.90;1.10;;;;;;;19.80;24.83;101498.55;105476;278;39444;-73
2023/05/03 11:18:11;;;;;;;2.90;1.40;;;;;;;19.59;25.60;101495.64;105914;278;38234;-74
2023/05/03 11:20:47;;;;;;;3.50;1.50;;;;;;;19.57;25.32;101496.46;105247;278;39589;-73
2023/05/03 11:23:28;;;;;;;1.80;1.00;;;;;;;19.64;25.79;101498.54;105496;278;39651;-73
2023/05/03 11:26:10;;;;;;;1.80;1.10;;;;;;;19.65;24.59;101493.77;105461;278;38650;-73
2023/05/03 11:28:44;;;;;;;2.40;1.00;;;;;;;19.43;24.98;101491.58;105937;278;38917;-74
2023/05/03 11:31:22;;;;;;;2.40;1.30;;;;;;;19.40;26.39;101494.80;105493;278;38477;-74
2023/05/03 11:33:57;;;;;;;2.20;1.20;;;;;;;19.51;26.42;101490.11;105423;279;39546;-74
2023/05/03 11:36:32;;;;;;;2.80;1.50;;;;;;;19.54;26.42;101492.17;105465;278;39645;-74
2023/05/03 11:39:08;;;;;;;1.40;1.00;;;;;;;19.43;26.21;101499.95;105476;267;39942;-74
2023/05/03 11:41:43;;;;;;;2.00;1.00;;;;;;;19.19;26.30;101506.58;105917;278;39454;-74
2023/05/03 11:44:17;;;;;;;2.40;1.20;;;;;;;19.14;27.04;101500.01;106050;277;38346;-74
2023/05/03 11:46:55;;;;;;;1.80;1.00;;;;;;;19.33;26.77;101495.73;105417;277;38270;-73
2023/05/03 11:49:31;;;;;;;1.90;1.30;;;;;;;19.48;26.61;101492.21;105679;276;38218;-73
2023/05/03 11:52:07;;;;;;;2.10;1.00;;;;;;;19.63;26.67;101489.95;105692;276;38400;-74
2023/05/03 11:54:44;;;;;;;2.60;1.20;;;;;;;19.78;26.62;101491.90;105696;276;38937;-73
2023/05/03 11:57:20;;;;;;;2.40;1.20;;;;;;;19.83;25.20;101492.89;105060;276;898078;-73
2023/05/03 11:59:55;;;;;;;3.40;1.60;;;;;;;19.83;25.63;101496.18;105646;276;38458;-74
2023/05/03 12:02:31;;;;;;;3.40;1.20;;;;;;;19.96;25.81;101500.10;105690;277;38593;-74
2023/05/03 12:05:07;;;;;;;2.90;1.20;;;;;;;19.88;25.45;101499.32;106134;277;38425;-74
2023/05/03 12:07:45;;;;;;;1.30;1.20;;;;;;;19.69;25.40;101493.35;105675;276;39878;-75
2023/05/03 12:10:31;;;;;;;2.80;1.20;;;;;;;19.59;25.71;101494.77;105657;276;38259;-74
2023/05/03 12:13:07;;;;;;;2.80;1.30;;;;;;;19.62;25.88;101495.48;105669;276;38459;-74
2023/05/03 12:15:45;;;;;;;2.70;1.30;;;;;;;19.38;24.89;101493.52;105684;276;38480;-73